Time;durP1;ratioP1;P1;durP2;ratioP2;P2;SDS_P1;SDS_P2;PMS_P1;PMS_P2;Temp;Humidity;BMP_temperature;BMP_pressure;BME280_temperature;BME280_humidity;BME280_pressure;Samples;Min_cycle;Max_cycle;Signal;HPM_P1;HPM_P2
2022/01/03 00:00:42;;;;;;;25.48;15.43;;;;;;;3.91;100.00;94801.41;5136987;27;20023;-68
2022/01/03 00:03:08;;;;;;;;;;;;;;;3.61;100.00;94808.91;5137398;27;20027;-69
2022/01/03 00:05:34;;;;;;;23.48;14.90;;;;;;;3.94;100.00;94805.91;5137499;27;19914;-69
2022/01/03 00:08:00;;;;;;;29.35;16.98;;;;;;;3.81;100.00;94798.63;5136900;27;20138;-69
2022/01/03 00:10:26;;;;;;;32.13;16.23;;;;;;;3.51;100.00;94797.34;5136846;27;20023;-69
2022/01/03 00:12:51;;;;;;;23.15;15.15;;;;;;;3.57;100.00;94794.84;5135714;27;20031;-69
2022/01/03 00:15:18;;;;;;;26.77;16.60;;;;;;;3.65;100.00;94791.47;5136781;27;20033;-69
2022/01/03 00:17:46;;;;;;;23.65;15.25;;;;;;;3.70;100.00;94788.25;5135705;27;20027;-68
2022/01/03 00:20:12;;;;;;;23.85;15.60;;;;;;;3.30;100.00;94761.19;5137146;27;20098;-69
2022/01/03 00:22:50;;;;;;;25.35;16.70;;;;;;;3.63;100.00;94767.03;5136566;27;20042;-68
2022/01/03 00:25:19;;;;;;;24.17;15.32;;;;;;;3.85;100.00;94772.41;5137130;27;20163;-69
2022/01/03 00:27:50;;;;;;;23.77;14.80;;;;;;;3.71;100.00;94764.84;5136488;27;20023;-68
2022/01/03 00:30:15;;;;;;;24.17;15.40;;;;;;;3.70;100.00;94760.66;5136843;27;20023;-68
2022/01/03 00:32:43;;;;;;;25.30;16.50;;;;;;;3.97;100.00;94759.38;5136385;27;20023;-68
2022/01/03 00:35:09;;;;;;;22.10;15.15;;;;;;;3.63;100.00;94739.44;5135991;27;20360;-68
2022/01/03 00:37:35;;;;;;;26.08;15.93;;;;;;;3.77;100.00;94754.31;5135389;27;20023;-68
2022/01/03 00:40:02;;;;;;;22.85;14.20;;;;;;;3.83;100.00;94763.28;5136332;27;20037;-68
2022/01/03 00:42:27;;;;;;;22.27;14.95;;;;;;;3.71;100.00;94759.50;5136812;27;20027;-68
2022/01/03 00:44:53;;;;;;;23.92;15.82;;;;;;;3.70;100.00;94782.16;5135276;27;20103;-68
2022/01/03 00:47:19;;;;;;;21.58;13.88;;;;;;;3.63;100.00;94785.06;5136720;27;20095;-68
2022/01/03 00:49:45;;;;;;;24.50;15.80;;;;;;;4.04;100.00;94791.38;5136413;27;20037;-68
2022/01/03 00:52:11;;;;;;;27.38;17.13;;;;;;;3.74;100.00;94790.81;5136040;27;20106;-69
2022/01/03 00:54:37;;;;;;;24.25;16.15;;;;;;;3.73;100.00;94802.75;5136563;27;20098;-68
2022/01/03 00:57:07;;;;;;;26.08;16.33;;;;;;;3.78;100.00;94788.03;5135819;27;20051;-68
2022/01/03 00:59:42;;;;;;;27.80;16.25;;;;;;;3.26;100.00;94782.03;5135910;27;20100;-68
2022/01/03 01:02:10;;;;;;;22.67;14.98;;;;;;;3.33;100.00;94761.09;5135886;27;20031;-69
2022/01/03 01:04:37;;;;;;;26.38;16.52;;;;;;;3.60;100.00;94761.75;5136150;27;20073;-68
2022/01/03 01:07:05;;;;;;;25.58;15.40;;;;;;;3.45;100.00;94732.72;5135744;27;20402;-68
2022/01/03 01:09:30;;;;;;;21.65;14.07;;;;;;;3.58;100.00;94735.38;5136093;27;20027;-68
2022/01/03 01:11:58;;;;;;;29.05;17.83;;;;;;;3.40;100.00;94727.91;5135604;27;20535;-69
2022/01/03 01:14:25;;;;;;;28.10;15.75;;;;;;;3.74;100.00;94734.44;5136208;27;20471;-69
2022/01/03 01:16:51;;;;;;;21.95;14.60;;;;;;;3.46;100.00;94736.16;5135661;27;20031;-69
2022/01/03 01:19:20;;;;;;;28.23;17.23;;;;;;;2.80;100.00;94724.03;5136124;27;20038;-68
2022/01/03 01:21:49;;;;;;;30.50;18.60;;;;;;;2.99;100.00;94729.63;5135777;27;20076;-69
2022/01/03 01:24:17;;;;;;;35.00;22.08;;;;;;;2.95;100.00;94726.28;5135785;27;20128;-68
2022/01/03 01:29:27;;;;;;;34.90;20.80;;;;;;;3.25;100.00;94726.88;5135963;27;20119;-69
2022/01/03 01:31:57;;;;;;;32.95;18.88;;;;;;;3.17;100.00;94729.03;5135480;27;20031;-69
2022/01/03 01:34:28;;;;;;;29.80;19.52;;;;;;;3.42;100.00;94728.22;5135237;27;20102;-69
2022/01/03 01:36:56;;;;;;;35.88;19.30;;;;;;;3.49;100.00;94721.84;5135542;27;20101;-69
2022/01/03 01:39:24;;;;;;;29.75;18.63;;;;;;;3.37;100.00;94712.69;5135654;27;20435;-68
2022/01/03 01:41:55;;;;;;;27.40;17.20;;;;;;;3.20;100.00;94720.13;5134214;27;20027;-69
2022/01/03 01:44:23;;;;;;;27.88;17.00;;;;;;;3.28;100.00;94715.28;5135288;27;20019;-67
2022/01/03 01:46:56;;;;;;;28.83;17.20;;;;;;;3.29;100.00;94711.44;5135199;27;20058;-68
2022/01/03 01:49:26;;;;;;;31.65;17.98;;;;;;;3.63;100.00;94710.66;5135136;27;20383;-67
2022/01/03 01:51:58;;;;;;;26.38;18.30;;;;;;;3.43;100.00;94702.16;5134983;27;20038;-68
2022/01/03 01:54:32;;;;;;;26.67;17.50;;;;;;;3.54;100.00;94710.56;5135355;27;20038;-68
2022/01/03 01:57:17;;;;;;;26.83;16.38;;;;;;;3.73;100.00;94722.22;5134854;27;20050;-68
2022/01/03 01:59:51;;;;;;;29.02;17.10;;;;;;;3.62;100.00;94711.09;5135012;27;20046;-68
2022/01/03 02:02:30;;;;;;;30.33;16.77;;;;;;;3.80;100.00;94724.63;5134854;27;20065;-68
2022/01/03 02:05:13;;;;;;;25.45;16.80;;;;;;;3.73;100.00;94719.53;5134886;27;20019;-68
2022/01/03 02:07:53;;;;;;;26.08;16.83;;;;;;;3.66;100.00;94717.09;5134879;27;20437;-68
2022/01/03 02:10:24;;;;;;;30.48;18.35;;;;;;;3.62;100.00;94701.09;5134904;27;20023;-69
2022/01/03 02:12:50;;;;;;;32.87;19.20;;;;;;;3.80;100.00;94692.41;5134520;27;20435;-69
2022/01/03 02:15:18;;;;;;;32.15;20.02;;;;;;;3.21;100.00;94676.03;5134377;27;20271;-69
2022/01/03 02:17:46;;;;;;;31.30;19.58;;;;;;;3.09;100.00;94666.81;5134412;27;20038;-69
2022/01/03 02:20:18;;;;;;;32.22;20.05;;;;;;;3.30;100.00;94660.00;5134824;27;20446;-69
2022/01/03 02:22:44;;;;;;;33.50;20.08;;;;;;;3.24;100.00;94647.59;5134904;27;20019;-68
2022/01/03 02:25:13;;;;;;;33.10;19.25;;;;;;;2.97;100.00;94649.59;5134548;27;20076;-69
2022/01/03 02:27:39;;;;;;;33.97;19.40;;;;;;;3.05;100.00;94644.75;5134294;27;20023;-68
2022/01/03 02:30:08;;;;;;;35.85;18.95;;;;;;;3.11;100.00;94639.56;5134196;27;20043;-69
2022/01/03 02:32:34;;;;;;;30.88;17.75;;;;;;;3.12;100.00;94633.78;5134639;27;20055;-69
2022/01/03 02:35:00;;;;;;;33.10;19.85;;;;;;;3.20;100.00;94643.09;5134349;27;20123;-69
2022/01/03 02:37:26;;;;;;;28.17;18.13;;;;;;;3.33;100.00;94653.03;5134455;27;20034;-69
2022/01/03 02:39:52;;;;;;;30.58;18.15;;;;;;;3.29;100.00;94652.41;5134357;27;20106;-69
2022/01/03 02:42:24;;;;;;;31.92;18.98;;;;;;;3.25;100.00;94665.94;5134083;27;20102;-68
2022/01/03 02:45:02;;;;;;;35.30;18.98;;;;;;;3.34;100.00;94670.59;5134676;27;20046;-68
2022/01/03 02:47:27;;;;;;;32.22;19.73;;;;;;;3.46;100.00;94659.06;5134309;27;20440;-69
2022/01/03 02:49:53;;;;;;;30.65;19.48;;;;;;;3.68;100.00;94672.53;5134071;27;20051;-68
2022/01/03 02:52:19;;;;;;;35.85;20.48;;;;;;;3.70;100.00;94672.09;5134248;27;20031;-69
2022/01/03 02:54:45;;;;;;;38.63;20.25;;;;;;;3.32;100.00;94668.38;5140029;27;20107;-69
2022/01/03 02:57:11;;;;;;;31.33;19.92;;;;;;;3.27;100.00;94662.81;5140842;27;20134;-68
2022/01/03 02:59:36;;;;;;;39.75;20.95;;;;;;;3.02;100.00;94648.28;5140844;27;20034;-68
2022/01/03 03:02:02;;;;;;;37.22;19.33;;;;;;;3.35;100.00;94645.28;5140801;27;20106;-68
2022/01/03 03:04:28;;;;;;;32.25;19.33;;;;;;;3.27;100.00;94652.06;5141287;27;20031;-68
2022/01/03 03:06:53;;;;;;;32.63;19.30;;;;;;;2.85;100.00;94643.09;5141070;27;20019;-68
2022/01/03 03:09:21;;;;;;;36.45;20.20;;;;;;;2.62;100.00;94635.38;5141322;27;20034;-68
2022/01/03 03:11:47;;;;;;;38.22;20.80;;;;;;;2.70;100.00;94626.72;5140676;27;20041;-69
2022/01/03 03:14:12;;;;;;;34.58;20.90;;;;;;;2.61;100.00;94631.22;5140949;27;20023;-68
2022/01/03 03:16:38;;;;;;;37.65;20.48;;;;;;;2.80;100.00;94635.59;5140898;27;20031;-68
2022/01/03 03:19:03;;;;;;;34.80;20.60;;;;;;;3.17;100.00;94638.59;5140643;27;20042;-68
2022/01/03 03:21:30;;;;;;;35.63;20.80;;;;;;;3.18;100.00;94642.03;5140596;27;20090;-68
2022/01/03 03:23:57;;;;;;;38.22;19.65;;;;;;;3.01;100.00;94641.44;5140558;27;20030;-68
2022/01/03 03:26:23;;;;;;;34.60;19.30;;;;;;;3.01;100.00;94657.53;5139563;27;20023;-68
2022/01/03 03:28:48;;;;;;;31.35;19.80;;;;;;;3.27;100.00;94638.66;5140508;27;20451;-68
2022/01/03 03:31:14;;;;;;;33.33;19.65;;;;;;;3.30;100.00;94643.16;5140379;27;20027;-68
2022/01/03 03:33:39;;;;;;;33.10;19.75;;;;;;;3.07;100.00;94657.72;5140474;27;20031;-68
2022/01/03 03:36:05;;;;;;;32.08;19.02;;;;;;;3.20;100.00;94645.78;5140412;27;20474;-67
2022/01/03 03:38:31;;;;;;;31.98;19.23;;;;;;;3.30;100.00;94637.78;5140324;27;20035;-67
2022/01/03 03:41:00;;;;;;;32.58;19.10;;;;;;;3.36;100.00;94634.13;5139424;27;20029;-68
2022/01/03 03:43:25;;;;;;;28.95;19.65;;;;;;;3.51;100.00;94633.63;5140341;27;20101;-68
2022/01/03 03:45:51;;;;;;;31.23;20.20;;;;;;;3.22;100.00;94611.22;5140360;27;20037;-68
2022/01/03 03:48:17;;;;;;;29.77;19.67;;;;;;;3.25;100.00;94622.28;5140305;27;20039;-68
2022/01/03 03:50:44;;;;;;;30.33;19.30;;;;;;;3.23;100.00;94620.00;5140420;27;20031;-68
2022/01/03 03:53:10;;;;;;;32.47;19.20;;;;;;;3.39;100.00;94640.53;5139597;27;20405;-68
2022/01/03 03:55:36;;;;;;;31.35;19.25;;;;;;;3.20;100.00;94621.66;5140301;27;20034;-68
2022/01/03 03:58:03;;;;;;;30.63;18.88;;;;;;;3.30;100.00;94627.06;5140320;27;20094;-68
2022/01/03 04:00:29;;;;;;;32.08;19.02;;;;;;;3.30;100.00;94622.47;5140145;27;20456;-68
2022/01/03 04:02:55;;;;;;;31.58;18.25;;;;;;;3.47;100.00;94623.00;5140273;27;20025;-68
2022/01/03 04:05:21;;;;;;;28.13;18.30;;;;;;;3.33;100.00;94610.09;5137801;27;20102;-68
2022/01/03 04:07:46;;;;;;;27.83;18.13;;;;;;;3.41;100.00;94627.44;5136194;27;20026;-68
2022/01/03 04:10:15;;;;;;;29.08;18.98;;;;;;;3.33;100.00;94620.84;5137049;27;20054;-68
2022/01/03 04:12:42;;;;;;;31.83;18.38;;;;;;;3.24;100.00;94623.44;5136998;27;20487;-68
2022/01/03 04:15:08;;;;;;;31.13;19.52;;;;;;;3.40;100.00;94617.91;5136727;27;20076;-68
2022/01/03 04:17:34;;;;;;;31.08;19.52;;;;;;;3.21;100.00;94636.53;5137004;27;20150;-68
2022/01/03 04:20:00;;;;;;;31.80;18.35;;;;;;;3.23;100.00;94625.34;5136714;27;20046;-68
2022/01/03 04:22:25;;;;;;;28.17;17.88;;;;;;;2.85;100.00;94645.75;5137182;27;20023;-69
2022/01/03 04:24:50;;;;;;;30.63;17.90;;;;;;;2.97;100.00;94633.53;5136794;27;20444;-68
2022/01/03 04:27:16;;;;;;;30.33;18.70;;;;;;;3.11;100.00;94621.56;5137044;27;20101;-68
2022/01/03 04:29:41;;;;;;;28.50;18.08;;;;;;;2.82;100.00;94627.88;5136720;27;20023;-68
2022/01/03 04:32:07;;;;;;;29.23;17.38;;;;;;;3.04;100.00;94621.78;5136612;27;20049;-69
2022/01/03 04:34:32;;;;;;;32.35;16.77;;;;;;;3.00;100.00;94621.91;5136428;27;20467;-69
2022/01/03 04:36:58;;;;;;;28.73;18.08;;;;;;;3.20;100.00;94624.31;5135344;27;20011;-68
2022/01/03 04:39:23;;;;;;;28.23;17.00;;;;;;;3.23;100.00;94622.69;5136373;27;20016;-69
2022/01/03 04:41:50;;;;;;;23.35;16.77;;;;;;;3.18;100.00;94621.31;5135308;27;20084;-68
2022/01/03 04:44:15;;;;;;;27.77;16.08;;;;;;;3.10;100.00;94614.69;5135228;27;20113;-69
2022/01/03 04:46:41;;;;;;;25.23;16.02;;;;;;;3.14;100.00;94614.59;5136455;27;20102;-69
2022/01/03 04:49:07;;;;;;;23.45;15.10;;;;;;;3.32;100.00;94630.06;5136396;27;20019;-69
2022/01/03 04:51:33;;;;;;;24.42;16.08;;;;;;;3.44;100.00;94631.94;5136562;27;20019;-69
2022/01/03 04:53:59;;;;;;;24.35;15.57;;;;;;;3.60;100.00;94659.78;5136061;27;20079;-68
2022/01/03 04:56:27;;;;;;;25.48;15.35;;;;;;;3.29;100.00;94647.03;5136220;27;20051;-68
2022/01/03 04:58:54;;;;;;;25.35;14.70;;;;;;;2.75;100.00;94652.22;5136009;27;20031;-68
2022/01/03 05:01:20;;;;;;;23.77;14.85;;;;;;;3.16;100.00;94660.47;5136488;27;20428;-68
2022/01/03 05:03:46;;;;;;;24.15;14.77;;;;;;;3.22;100.00;94654.13;5135028;27;20019;-68
2022/01/03 05:06:12;;;;;;;21.30;14.45;;;;;;;3.28;100.00;94661.63;5136109;27;20019;-68
2022/01/03 05:08:39;;;;;;;26.60;14.00;;;;;;;3.19;100.00;94665.75;5135756;27;20513;-68
2022/01/03 05:11:04;;;;;;;22.98;14.07;;;;;;;3.37;100.00;94654.41;5135816;27;20042;-67
2022/01/03 05:13:31;;;;;;;21.92;14.65;;;;;;;3.48;100.00;94659.41;5135562;27;20015;-67
2022/01/03 05:15:58;;;;;;;24.48;15.88;;;;;;;3.35;100.00;94650.66;5135263;27;20034;-68
2022/01/03 05:18:24;;;;;;;25.00;16.30;;;;;;;3.21;100.00;94647.25;5134611;27;20072;-68
2022/01/03 05:20:50;;;;;;;34.45;21.58;;;;;;;3.33;100.00;94647.66;5135527;27;20023;-68
2022/01/03 05:23:15;;;;;;;33.00;20.02;;;;;;;2.95;100.00;94640.50;5135616;27;20023;-68
2022/01/03 05:25:41;;;;;;;37.75;22.45;;;;;;;3.03;100.00;94633.72;5135443;27;20019;-68
2022/01/03 05:28:06;;;;;;;33.35;19.52;;;;;;;2.64;100.00;94622.31;5135445;27;20026;-68
2022/01/03 05:30:32;;;;;;;34.38;19.73;;;;;;;3.25;100.00;94638.38;5135375;27;20376;-68
2022/01/03 05:32:59;;;;;;;32.83;19.05;;;;;;;2.97;100.00;94633.53;5135203;27;20496;-68
2022/01/03 05:35:24;;;;;;;36.72;20.13;;;;;;;3.04;100.00;94638.63;5135492;27;20058;-68
2022/01/03 05:37:50;;;;;;;30.20;17.63;;;;;;;2.99;100.00;94644.53;5135343;27;20165;-68
2022/01/03 05:40:15;;;;;;;27.23;18.33;;;;;;;2.94;100.00;94633.63;5135427;27;20019;-68
2022/01/03 05:42:42;;;;;;;23.48;15.98;;;;;;;3.03;100.00;94620.31;5135593;27;20023;-68
2022/01/03 05:45:08;;;;;;;20.27;13.32;;;;;;;3.08;100.00;94619.75;5134023;27;20023;-68
2022/01/03 05:47:34;;;;;;;18.70;12.88;;;;;;;3.10;100.00;94625.41;5134339;27;20341;-68
2022/01/03 05:49:59;;;;;;;19.83;11.85;;;;;;;2.99;100.00;94625.03;5134920;27;20030;-68
2022/01/03 05:52:25;;;;;;;18.73;12.32;;;;;;;3.21;100.00;94636.53;5134762;27;20023;-68
2022/01/03 05:54:52;;;;;;;25.05;14.18;;;;;;;3.05;100.00;94634.00;5134805;27;20475;-68
2022/01/03 05:57:18;;;;;;;23.45;15.73;;;;;;;3.15;100.00;94635.59;5134598;27;20047;-68
2022/01/03 05:59:43;;;;;;;24.05;15.30;;;;;;;3.00;100.00;94640.69;5135288;27;20080;-68
2022/01/03 06:02:09;;;;;;;22.98;13.80;;;;;;;2.96;100.00;94631.25;5134704;27;20372;-68
2022/01/03 06:04:54;;;;;;;26.15;15.63;;;;;;;3.17;100.00;94635.91;5134681;27;20030;-67
2022/01/03 06:07:20;;;;;;;22.17;13.70;;;;;;;3.30;100.00;94649.28;5134963;27;20076;-67
2022/01/03 06:09:47;;;;;;;20.23;13.90;;;;;;;3.15;100.00;94635.59;5133646;27;20035;-67
2022/01/03 06:12:13;;;;;;;23.85;14.82;;;;;;;3.32;100.00;94640.78;5134664;27;20062;-68
2022/01/03 06:14:39;;;;;;;23.88;14.30;;;;;;;3.49;100.00;94644.81;5134448;27;20023;-68
2022/01/03 06:17:06;;;;;;;23.73;15.40;;;;;;;3.57;100.00;94649.91;5134418;27;20140;-68
2022/01/03 06:19:35;;;;;;;21.13;13.27;;;;;;;3.13;100.00;94650.63;5133753;27;20432;-69
2022/01/03 06:22:04;;;;;;;23.42;14.10;;;;;;;3.40;100.00;94668.13;5134422;27;20095;-68
2022/01/03 06:24:30;;;;;;;21.50;14.13;;;;;;;3.38;100.00;94661.28;5134452;27;20034;-68
2022/01/03 06:26:56;;;;;;;18.60;11.93;;;;;;;3.19;100.00;94660.38;5134347;27;20019;-69
2022/01/03 06:29:21;;;;;;;25.77;14.38;;;;;;;3.26;100.00;94663.97;5133938;27;20376;-69
2022/01/03 06:31:48;;;;;;;23.25;13.45;;;;;;;3.25;100.00;94651.78;5134252;27;20037;-69
2022/01/03 06:34:15;;;;;;;23.98;13.68;;;;;;;3.08;100.00;94651.94;5134366;27;20023;-68
2022/01/03 06:36:41;;;;;;;20.35;13.10;;;;;;;3.02;100.00;94656.34;5134282;27;20467;-68
2022/01/03 06:39:09;;;;;;;24.55;13.52;;;;;;;2.82;100.00;94641.28;5134340;27;20023;-68
2022/01/03 06:41:35;;;;;;;23.70;13.50;;;;;;;3.10;100.00;94648.81;5134586;27;20015;-69
2022/01/03 06:44:01;;;;;;;19.40;12.98;;;;;;;2.75;100.00;94638.81;5134386;27;20023;-69
2022/01/03 06:46:26;;;;;;;22.42;14.48;;;;;;;3.00;100.00;94647.97;5134443;27;20472;-69
2022/01/03 06:48:52;;;;;;;20.10;14.60;;;;;;;2.95;100.00;94648.53;5134074;27;20027;-69
2022/01/03 06:51:17;;;;;;;23.90;12.25;;;;;;;3.01;100.00;94646.78;5132688;27;20023;-69
2022/01/03 06:53:43;;;;;;;18.02;12.48;;;;;;;3.16;100.00;94644.38;5133992;27;20030;-68
2022/01/03 06:56:09;;;;;;;20.98;14.48;;;;;;;2.88;100.00;94636.84;5133780;27;20071;-68
2022/01/03 06:58:35;;;;;;;28.80;17.10;;;;;;;3.27;100.00;94633.31;5132840;27;20031;-67
2022/01/03 07:01:02;;;;;;;35.17;22.80;;;;;;;3.38;100.00;94639.03;5132723;27;20387;-67
2022/01/03 07:03:27;;;;;;;32.67;20.33;;;;;;;3.59;100.00;94647.56;5133815;27;20106;-67
2022/01/03 07:05:54;;;;;;;30.63;18.95;;;;;;;3.78;100.00;94657.22;5133741;27;20451;-67
2022/01/03 07:08:22;;;;;;;28.45;18.65;;;;;;;4.03;100.00;94660.94;5133784;27;20019;-67
2022/01/03 07:10:48;;;;;;;30.92;19.30;;;;;;;4.26;100.00;94661.66;5133787;27;20019;-68
2022/01/03 07:13:14;;;;;;;31.60;20.13;;;;;;;4.37;100.00;94659.28;5133732;27;20031;-68
2022/01/03 07:21:08;;;;;;;25.80;17.63;;;;;;;4.83;100.00;94650.63;5134020;28;20061;-68
2022/01/03 07:23:34;;;;;;;28.55;17.67;;;;;;;4.93;100.00;94654.81;5133607;27;20027;-68
2022/01/03 07:26:00;;;;;;;29.77;18.60;;;;;;;5.29;100.00;94647.22;5134191;27;20031;-68
2022/01/03 07:28:25;;;;;;;28.75;17.88;;;;;;;5.96;100.00;94634.00;5133618;27;20140;-68
2022/01/03 07:30:51;;;;;;;33.90;20.75;;;;;;;5.32;100.00;94627.53;5133405;27;20064;-68
2022/01/03 07:33:17;;;;;;;26.83;19.25;;;;;;;5.52;100.00;94617.03;5133600;27;20027;-68
2022/01/03 07:35:42;;;;;;;31.42;21.55;;;;;;;5.91;100.00;94622.63;5133463;27;20102;-68
2022/01/03 07:38:08;;;;;;;36.55;21.52;;;;;;;6.48;100.00;94615.88;5133563;27;20030;-69
2022/01/03 07:40:33;;;;;;;32.00;18.95;;;;;;;6.81;100.00;94615.09;5135005;27;20023;-69
2022/01/03 07:43:00;;;;;;;37.75;22.63;;;;;;;7.32;100.00;94628.84;5137514;27;20102;-69
2022/01/03 07:45:26;;;;;;;30.45;20.08;;;;;;;7.12;100.00;94643.69;5137929;27;20387;-68
2022/01/03 07:47:52;;;;;;;22.50;15.18;;;;;;;9.27;100.00;94644.38;5136447;27;20023;-66
2022/01/03 07:50:17;;;;;;;29.00;17.08;;;;;;;9.92;100.00;94659.59;5137401;27;20030;-69
2022/01/03 07:52:43;;;;;;;26.95;18.58;;;;;;;8.37;100.00;94656.66;5137672;27;20027;-69
2022/01/03 07:55:11;;;;;;;27.85;18.55;;;;;;;8.90;100.00;94658.47;5137461;27;20034;-69
2022/01/03 07:57:38;;;;;;;24.85;17.70;;;;;;;9.47;100.00;94661.84;5137095;27;20059;-70
2022/01/03 08:00:06;;;;;;;30.38;18.20;;;;;;;9.52;100.00;94653.03;5137383;27;20456;-68
2022/01/03 08:02:31;;;;;;;28.83;19.38;;;;;;;8.85;100.00;94645.59;5137190;27;20038;-67
2022/01/03 08:04:57;;;;;;;35.92;21.73;;;;;;;8.38;100.00;94641.94;5137173;27;20031;-69
2022/01/03 08:07:23;;;;;;;36.45;21.60;;;;;;;8.70;100.00;94645.63;5136925;27;20027;-69
2022/01/03 08:09:48;;;;;;;30.38;19.13;;;;;;;9.10;100.00;94643.44;5136932;27;20023;-69
2022/01/03 08:12:14;;;;;;;28.15;18.58;;;;;;;9.25;100.00;94644.09;5137071;27;20027;-68
2022/01/03 08:14:39;;;;;;;27.80;18.67;;;;;;;9.34;100.00;94650.59;5136793;27;20050;-68
2022/01/03 08:17:05;;;;;;;28.52;17.27;;;;;;;10.11;97.88;94654.59;5137032;27;20027;-68
2022/01/03 08:19:31;;;;;;;24.00;15.95;;;;;;;10.56;95.95;94648.06;5136689;27;20027;-69
2022/01/03 08:21:57;;;;;;;32.17;18.55;;;;;;;10.93;94.26;94664.31;5137162;27;20023;-68
2022/01/03 08:24:22;;;;;;;34.10;20.33;;;;;;;11.71;88.74;94662.44;5136589;27;20087;-68
2022/01/03 08:26:49;;;;;;;27.42;19.05;;;;;;;12.24;84.39;94656.63;5136509;27;20023;-69
2022/01/03 08:29:15;;;;;;;28.67;17.40;;;;;;;12.53;81.58;94660.84;5135539;27;20426;-69
2022/01/03 08:31:40;;;;;;;35.38;15.95;;;;;;;13.28;77.87;94654.75;5136370;27;20059;-69
2022/01/03 08:34:07;;;;;;;24.10;14.90;;;;;;;14.01;75.13;94656.38;5136366;27;20350;-68
2022/01/03 08:36:32;;;;;;;27.40;14.95;;;;;;;13.88;65.29;94669.13;5135225;27;20031;-68
2022/01/03 08:38:58;;;;;;;18.63;13.85;;;;;;;13.48;64.43;94648.25;5136316;27;20096;-69
2022/01/03 08:41:24;;;;;;;19.65;13.98;;;;;;;12.67;67.02;94645.47;5136219;27;20036;-68
2022/01/03 08:43:51;;;;;;;23.33;14.30;;;;;;;12.86;65.63;94648.41;5136789;27;20106;-68
2022/01/03 08:46:17;;;;;;;22.02;12.82;;;;;;;14.11;59.47;94647.91;5136396;27;20085;-69
2022/01/03 08:48:43;;;;;;;19.15;13.77;;;;;;;13.58;61.35;94626.13;5136492;27;20027;-68
2022/01/03 08:51:08;;;;;;;18.38;13.32;;;;;;;13.28;62.93;94626.72;5135684;27;20459;-67
2022/01/03 08:53:35;;;;;;;20.70;14.02;;;;;;;13.08;64.48;94614.91;5135973;27;20027;-68
2022/01/03 08:56:01;;;;;;;20.05;14.27;;;;;;;13.47;61.33;94610.56;5136115;27;20131;-67
2022/01/03 08:58:27;;;;;;;20.13;11.77;;;;;;;12.88;61.74;94605.06;5136290;27;20394;-67
2022/01/03 09:00:53;;;;;;;19.67;12.15;;;;;;;13.35;60.91;94605.19;5136400;27;20379;-68
2022/01/03 09:03:19;;;;;;;18.25;12.00;;;;;;;13.77;59.34;94597.03;5136032;27;20019;-67
2022/01/03 09:05:45;;;;;;;20.23;11.80;;;;;;;14.37;56.64;94592.88;5136067;27;20038;-67
2022/01/03 09:08:11;;;;;;;16.75;10.70;;;;;;;12.52;63.24;94586.59;5136080;27;20080;-68
2022/01/03 09:10:38;;;;;;;17.02;11.57;;;;;;;13.51;59.99;94594.69;5135802;27;20043;-68
2022/01/03 09:13:03;;;;;;;22.60;11.75;;;;;;;14.75;55.36;94611.41;5135641;27;20046;-68
2022/01/03 09:15:29;;;;;;;16.98;12.13;;;;;;;15.73;52.43;94613.25;5135675;27;20019;-68
2022/01/03 09:17:55;;;;;;;16.80;12.65;;;;;;;15.34;52.98;94604.31;5135643;27;20520;-69
2022/01/03 09:20:21;;;;;;;19.98;13.05;;;;;;;15.52;51.48;94593.91;5135536;27;20027;-67
2022/01/03 09:22:49;;;;;;;15.75;12.35;;;;;;;15.44;51.66;94588.28;5135485;27;20023;-66
2022/01/03 09:30:33;;;;;;;16.52;11.75;;;;;;;17.12;46.05;94588.13;5135680;27;20034;-67
2022/01/03 09:32:59;;;;;;;19.52;12.60;;;;;;;16.28;47.68;94577.41;5135232;27;20039;-68
2022/01/03 09:35:25;;;;;;;17.38;12.70;;;;;;;16.40;47.81;94572.44;5134316;27;20027;-68
2022/01/03 09:37:51;;;;;;;19.02;12.48;;;;;;;16.21;47.77;94573.28;5135505;27;20087;-67
2022/01/03 09:40:17;;;;;;;19.17;11.73;;;;;;;15.15;50.08;94555.09;5134112;27;20027;-68
2022/01/03 09:42:46;;;;;;;19.52;12.90;;;;;;;15.03;50.68;94545.56;5135393;27;20428;-69
2022/01/03 09:45:12;;;;;;;24.05;13.23;;;;;;;14.85;51.33;94542.25;5135087;27;20019;-68
2022/01/03 09:47:44;;;;;;;23.15;13.57;;;;;;;16.21;52.27;94545.13;5135573;27;20019;-68
2022/01/03 09:50:17;;;;;;;16.50;11.93;;;;;;;16.37;50.07;94546.88;5135309;27;20026;-69
2022/01/03 09:52:46;;;;;;;18.73;12.00;;;;;;;16.20;49.18;94543.69;5134724;27;20019;-68
2022/01/03 09:55:12;;;;;;;20.00;11.45;;;;;;;15.80;48.26;94540.81;5135334;27;20020;-68
2022/01/03 09:57:39;;;;;;;15.18;10.35;;;;;;;16.11;47.00;94538.59;5134574;27;20051;-67
2022/01/03 10:00:05;;;;;;;23.60;12.13;;;;;;;15.89;48.55;94527.47;5133944;27;20504;-68
2022/01/03 10:02:31;;;;;;;21.08;12.77;;;;;;;14.86;50.91;94512.94;5134024;27;20367;-67
2022/01/03 10:04:59;;;;;;;23.23;12.40;;;;;;;15.25;50.44;94522.66;5134745;27;20023;-68
2022/01/03 10:07:24;;;;;;;17.52;12.77;;;;;;;15.50;49.02;94514.38;5134871;27;20027;-68
2022/01/03 10:09:51;;;;;;;19.45;13.07;;;;;;;13.60;54.64;94493.53;5134943;27;20038;-68
2022/01/03 10:12:18;;;;;;;19.67;12.82;;;;;;;14.41;53.14;94494.31;5134474;27;20098;-68
2022/01/03 10:14:44;;;;;;;19.98;12.60;;;;;;;14.73;51.42;94496.50;5134474;27;20482;-68
2022/01/03 10:17:10;;;;;;;17.83;12.27;;;;;;;14.74;52.04;94497.94;5134375;27;20027;-68
2022/01/03 10:19:57;;;;;;;26.27;12.27;;;;;;;14.62;52.90;94481.66;5134944;27;20051;-68
2022/01/03 10:22:28;;;;;;;18.75;12.32;;;;;;;14.87;51.50;94478.91;5133291;27;20034;-68
2022/01/03 10:24:54;;;;;;;18.83;12.20;;;;;;;15.02;51.33;94487.44;5134306;27;20348;-68
2022/01/03 10:27:22;;;;;;;17.63;12.45;;;;;;;14.95;51.52;94485.28;5134135;27;20470;-67
2022/01/03 10:29:58;;;;;;;28.98;13.15;;;;;;;15.17;51.07;94478.03;5134170;27;20053;-69
2022/01/03 10:32:28;;;;;;;19.80;13.63;;;;;;;14.88;51.07;94480.41;5134524;27;20019;-68
2022/01/03 10:35:11;;;;;;;27.20;14.73;;;;;;;14.88;51.53;94467.47;5134394;27;20301;-67
2022/01/03 10:37:37;;;;;;;28.02;16.05;;;;;;;14.35;52.65;94459.63;5134666;27;20378;-67
2022/01/03 10:40:29;;;;;;;21.40;13.95;;;;;;;13.46;55.77;94445.56;5134352;27;20030;-67
2022/01/03 10:43:12;;;;;;;20.45;14.40;;;;;;;14.42;53.19;94454.84;5134395;27;20031;-68
2022/01/03 10:45:39;;;;;;;21.63;15.40;;;;;;;14.93;51.20;94459.72;5134301;27;20019;-67
2022/01/03 10:48:25;;;;;;;22.60;15.43;;;;;;;14.43;52.90;94437.94;5133876;27;20045;-67
2022/01/03 10:50:53;;;;;;;28.80;15.68;;;;;;;14.70;51.92;94435.44;5133817;27;20428;-67
2022/01/03 10:53:34;;;;;;;23.98;14.27;;;;;;;13.51;54.80;94420.22;5133633;27;20027;-67
2022/01/03 10:56:20;;;;;;;19.92;13.77;;;;;;;13.57;54.94;94418.22;5133842;27;20391;-67
2022/01/03 10:58:46;;;;;;;26.30;13.93;;;;;;;13.28;57.43;94416.91;5133704;27;20072;-68
2022/01/03 11:01:24;;;;;;;22.13;13.57;;;;;;;13.62;56.02;94403.03;5134141;27;20425;-67
2022/01/03 11:03:51;;;;;;;23.90;14.50;;;;;;;13.83;55.07;94412.28;5133642;27;20045;-67
2022/01/03 11:06:48;;;;;;;24.15;14.43;;;;;;;13.24;56.37;94403.56;5133982;27;20439;-67
2022/01/03 11:12:16;;;;;;;26.20;14.88;;;;;;;12.63;58.64;94397.25;5134273;28;20033;-67
2022/01/03 11:14:42;;;;;;;20.83;14.20;;;;;;;12.80;57.63;94386.25;5136166;27;20095;-68
2022/01/03 11:17:29;;;;;;;23.40;14.13;;;;;;;12.29;59.64;94391.97;5138123;27;20491;-68
2022/01/03 11:19:59;;;;;;;22.65;14.25;;;;;;;13.15;57.11;94387.53;5138279;27;20398;-67
2022/01/03 11:22:44;;;;;;;25.20;14.55;;;;;;;13.04;57.70;94374.00;5138300;27;20011;-67
2022/01/03 11:25:10;;;;;;;22.45;14.55;;;;;;;12.98;58.29;94376.78;5137819;27;20023;-67
2022/01/03 11:27:38;;;;;;;25.80;15.10;;;;;;;12.85;59.05;94380.06;5138391;27;20059;-68
2022/01/03 11:30:06;;;;;;;25.75;15.30;;;;;;;13.23;57.71;94368.66;5137980;27;20027;-68
2022/01/03 11:32:32;;;;;;;25.70;16.90;;;;;;;12.92;58.55;94363.16;5138227;27;20440;-68
2022/01/03 11:35:00;;;;;;;23.75;15.35;;;;;;;13.24;57.63;94348.31;5137764;27;20106;-68